Time;durP1;ratioP1;P1;durP2;ratioP2;P2;SDS_P1;SDS_P2;PMS_P1;PMS_P2;Temp;Humidity;BMP_temperature;BMP_pressure;BME280_temperature;BME280_humidity;BME280_pressure;Samples;Min_cycle;Max_cycle;Signal;HPM_P1;HPM_P2
2021/06/28 00:00:07;;;;;;;12.23;3.22;;;;;;;;;;4982529;28;20044;-68
2021/06/28 00:02:33;;;;;;;5.55;3.42;;;;;;;;;;5019380;28;20452;-69
2021/06/28 00:04:59;;;;;;;7.80;3.13;;;;;;;;;;5015492;28;20451;-69
2021/06/28 00:07:24;;;;;;;5.55;3.00;;;;;;;;;;5012012;28;20038;-68
2021/06/28 00:09:50;;;;;;;8.25;3.03;;;;;;;;;;5011812;28;20038;-67
2021/06/28 00:12:16;;;;;;;6.60;3.10;;;;;;;;;;5015509;28;20029;-67
2021/06/28 00:14:42;;;;;;;5.45;2.63;;;;;;;;;;5017253;28;20105;-67
2021/06/28 00:17:07;;;;;;;10.18;2.97;;;;;;;;;;5017273;28;20077;-68
2021/06/28 00:19:33;;;;;;;4.82;3.10;;;;;;;;;;5013054;28;20068;-68
2021/06/28 00:21:58;;;;;;;11.00;4.25;;;;;;;;;;5012485;28;20052;-68
2021/06/28 00:24:24;;;;;;;4.65;2.97;;;;;;;;;;4995562;28;20507;-67
2021/06/28 00:26:50;;;;;;;6.32;3.13;;;;;;;;;;5023178;28;20021;-67
2021/06/28 00:29:15;;;;;;;10.98;3.20;;;;;;;;;;5016544;28;20033;-67
2021/06/28 00:31:41;;;;;;;5.78;3.10;;;;;;;;;;5014147;28;20448;-68
2021/06/28 00:34:06;;;;;;;9.10;3.20;;;;;;;;;;5013859;28;20120;-68
2021/06/28 00:36:32;;;;;;;10.70;2.97;;;;;;;;;;5015575;28;20103;-68
2021/06/28 00:38:58;;;;;;;7.80;3.10;;;;;;;;;;5014054;28;20044;-68
2021/06/28 00:41:24;;;;;;;6.03;3.60;;;;;;;;;;5012057;28;20034;-68
2021/06/28 00:43:50;;;;;;;8.38;3.45;;;;;;;;;;5016710;28;20148;-69
2021/06/28 00:46:16;;;;;;;6.13;3.47;;;;;;;;;;5012823;28;20400;-69
2021/06/28 00:48:42;;;;;;;10.70;3.58;;;;;;;;;;5000429;28;20463;-69
2021/06/28 00:51:07;;;;;;;7.05;3.15;;;;;;;;;;5014998;28;20045;-68
2021/06/28 00:53:33;;;;;;;7.88;3.10;;;;;;;;;;5015101;28;20025;-68
2021/06/28 00:56:11;;;;;;;5.22;3.25;;;;;;;;;;5016092;28;20044;-68
2021/06/28 00:58:41;;;;;;;9.85;3.25;;;;;;;;;;5016870;28;20495;-68
2021/06/28 01:01:07;;;;;;;10.23;3.28;;;;;;;;;;5018719;28;20109;-68
2021/06/28 01:03:33;;;;;;;10.02;3.50;;;;;;;;;;5014629;28;20037;-68
2021/06/28 01:06:00;;;;;;;7.50;3.30;;;;;;;;;;5019963;28;20498;-68
2021/06/28 01:08:26;;;;;;;9.15;3.83;;;;;;;;;;5016907;28;20039;-68
2021/06/28 01:10:52;;;;;;;9.15;3.53;;;;;;;;;;5018967;28;20053;-68
2021/06/28 01:13:17;;;;;;;7.78;3.40;;;;;;;;;;4996561;28;20548;-67
2021/06/28 01:15:43;;;;;;;7.40;3.53;;;;;;;;;;5014056;28;20033;-67
2021/06/28 01:18:09;;;;;;;7.82;2.83;;;;;;;;;;5007582;28;20034;-67
2021/06/28 01:20:35;;;;;;;7.90;3.58;;;;;;;;;;5013714;28;20076;-67
2021/06/28 01:23:21;;;;;;;7.72;3.03;;;;;;;;;;5019120;28;20400;-68
2021/06/28 01:25:49;;;;;;;7.40;3.20;;;;;;;;;;5013356;28;20411;-67
2021/06/28 01:28:15;;;;;;;7.10;3.75;;;;;;;;;;5021879;28;20117;-68
2021/06/28 01:30:42;;;;;;;8.48;3.42;;;;;;;;;;5011877;28;20045;-68
2021/06/28 01:33:07;;;;;;;6.82;3.45;;;;;;;;;;5012807;28;20145;-68
2021/06/28 01:35:33;;;;;;;7.40;3.13;;;;;;;;;;5019370;28;20112;-68
2021/06/28 01:37:59;;;;;;;8.90;3.30;;;;;;;;;;5020513;28;20486;-68
2021/06/28 01:40:24;;;;;;;6.68;3.40;;;;;;;;;;5019434;28;20040;-68
2021/06/28 01:42:50;;;;;;;5.43;3.15;;;;;;;;;;5016501;28;20451;-68
2021/06/28 01:45:19;;;;;;;7.22;3.28;;;;;;;;;;5015943;28;20627;-68
2021/06/28 01:47:46;;;;;;;7.57;3.17;;;;;;;;;;5017843;28;20049;-68
2021/06/28 01:50:15;;;;;;;5.35;3.17;;;;;;;;;;5021437;28;20053;-69
2021/06/28 01:52:41;;;;;;;9.63;3.55;;;;;;;;;;5024171;28;20033;-69
2021/06/28 01:55:09;;;;;;;4.82;3.17;;;;;;;;;;5015706;28;20049;-67
2021/06/28 01:57:47;;;;;;;5.88;3.28;;;;;;;;;;5018247;28;20583;-67
2021/06/28 02:00:15;;;;;;;8.35;3.97;;;;;;;;;;5011234;28;20072;-68
2021/06/28 02:02:41;;;;;;;7.03;4.15;;;;;;;;;;5013183;28;20029;-68
2021/06/28 02:05:07;;;;;;;9.57;3.92;;;;;;;;;;5017337;28;20037;-70
2021/06/28 02:07:33;;;;;;;7.68;3.50;;;;;;;;;;5016132;28;20052;-67
2021/06/28 02:09:58;;;;;;;7.38;3.80;;;;;;;;;;5018590;28;20069;-68
2021/06/28 02:12:25;;;;;;;6.20;2.97;;;;;;;;;;5017038;28;20551;-68
2021/06/28 02:14:51;;;;;;;8.18;3.78;;;;;;;;;;5011490;28;20030;-68
2021/06/28 02:17:18;;;;;;;8.15;3.42;;;;;;;;;;5020503;28;20065;-68
2021/06/28 02:19:46;;;;;;;5.55;3.22;;;;;;;;;;5013342;28;20041;-68
2021/06/28 02:22:12;;;;;;;6.88;3.58;;;;;;;;;;5018088;28;20524;-66
2021/06/28 02:24:38;;;;;;;5.68;3.28;;;;;;;;;;5016976;28;20508;-68
2021/06/28 02:27:03;;;;;;;5.53;3.38;;;;;;;;;;5013266;28;20454;-68
2021/06/28 02:29:29;;;;;;;8.85;3.75;;;;;;;;;;5019307;28;20028;-68
2021/06/28 02:31:54;;;;;;;6.30;3.75;;;;;;;;;;5018642;28;20038;-68
2021/06/28 02:34:20;;;;;;;5.90;3.25;;;;;;;;;;5000452;28;20033;-67
2021/06/28 02:36:45;;;;;;;7.00;3.45;;;;;;;;;;5017389;28;20502;-67
2021/06/28 02:39:11;;;;;;;6.35;3.58;;;;;;;;;;5014459;28;20083;-68
2021/06/28 02:41:37;;;;;;;13.15;3.85;;;;;;;;;;5013393;28;20039;-67
2021/06/28 02:44:03;;;;;;;8.68;3.53;;;;;;;;;;5014774;28;20117;-67
2021/06/28 02:46:28;;;;;;;7.55;4.03;;;;;;;;;;5014377;28;20025;-67
2021/06/28 02:48:54;;;;;;;9.70;4.10;;;;;;;;;;5013246;28;20068;-67
2021/06/28 02:51:20;;;;;;;12.45;3.95;;;;;;;;;;5014382;28;20033;-67
2021/06/28 02:53:46;;;;;;;8.90;4.43;;;;;;;;;;5011667;28;20030;-68
2021/06/28 02:56:19;;;;;;;17.30;4.43;;;;;;;;;;5018867;28;20029;-69
2021/06/28 02:58:45;;;;;;;7.50;3.90;;;;;;;;;;5013101;28;20425;-69
2021/06/28 03:01:12;;;;;;;7.32;3.65;;;;;;;;;;5015702;28;20071;-69
2021/06/28 03:03:37;;;;;;;7.38;3.97;;;;;;;;;;5022559;28;20034;-68
2021/06/28 03:06:03;;;;;;;9.48;3.85;;;;;;;;;;5020439;28;20029;-69
2021/06/28 03:08:29;;;;;;;8.10;4.50;;;;;;;;;;5019181;28;20084;-69
2021/06/28 03:10:54;;;;;;;7.90;3.75;;;;;;;;;;5016680;28;20047;-68
2021/06/28 03:13:19;;;;;;;8.55;4.28;;;;;;;;;;5018088;28;20570;-68
2021/06/28 03:15:45;;;;;;;7.45;4.32;;;;;;;;;;5020794;28;20025;-68
2021/06/28 03:18:11;;;;;;;10.30;4.20;;;;;;;;;;5018176;28;20030;-69
2021/06/28 03:20:36;;;;;;;10.55;4.22;;;;;;;;;;5014807;28;20069;-68
2021/06/28 03:23:02;;;;;;;6.22;4.13;;;;;;;;;;5018668;28;20033;-68
2021/06/28 03:25:28;;;;;;;10.18;4.07;;;;;;;;;;5009698;28;20109;-68
2021/06/28 03:27:54;;;;;;;8.95;4.63;;;;;;;;;;5012090;28;20448;-68
2021/06/28 03:30:20;;;;;;;9.93;4.43;;;;;;;;;;5009567;28;20029;-68
2021/06/28 03:32:45;;;;;;;9.13;4.25;;;;;;;;;;5015252;28;20045;-67
2021/06/28 03:35:13;;;;;;;9.90;3.70;;;;;;;;;;5017704;28;20034;-69
2021/06/28 03:37:39;;;;;;;9.45;4.13;;;;;;;;;;5016110;28;20087;-69
2021/06/28 03:40:07;;;;;;;11.25;4.28;;;;;;;;;;5012447;28;20245;-69
2021/06/28 03:42:35;;;;;;;7.45;4.55;;;;;;;;;;5012204;28;20092;-68
2021/06/28 03:45:01;;;;;;;10.52;4.57;;;;;;;;;;5013100;28;20061;-67
2021/06/28 03:47:26;;;;;;;9.02;4.68;;;;;;;;;;5014117;28;20525;-69
2021/06/28 03:49:52;;;;;;;7.32;4.28;;;;;;;;;;5013876;28;20670;-69
2021/06/28 03:52:17;;;;;;;9.23;4.53;;;;;;;;;;5013703;28;20064;-69
2021/06/28 03:54:42;;;;;;;11.45;4.55;;;;;;;;;;5013457;28;20444;-68
2021/06/28 03:57:08;;;;;;;6.47;4.13;;;;;;;;;;5013767;28;20053;-68
2021/06/28 03:59:34;;;;;;;9.10;4.40;;;;;;;;;;5018378;28;20045;-69
2021/06/28 04:01:59;;;;;;;6.47;3.95;;;;;;;;;;5012254;28;20037;-69
2021/06/28 04:04:26;;;;;;;7.68;3.83;;;;;;;;;;5015853;28;20080;-69
2021/06/28 04:06:52;;;;;;;6.25;3.95;;;;;;;;;;5014123;28;20030;-68
2021/06/28 04:09:18;;;;;;;6.85;4.10;;;;;;;;;;5018412;28;20041;-67
2021/06/28 04:11:43;;;;;;;8.23;4.18;;;;;;;;;;5014040;28;20511;-67
2021/06/28 04:14:09;;;;;;;8.38;4.43;;;;;;;;;;5013416;28;20033;-67
2021/06/28 04:16:34;;;;;;;6.25;3.60;;;;;;;;;;5012663;28;20073;-67
2021/06/28 04:19:00;;;;;;;5.68;3.35;;;;;;;;;;5015329;28;20807;-67
2021/06/28 04:21:25;;;;;;;6.68;3.20;;;;;;;;;;5015751;28;20161;-67
2021/06/28 04:23:51;;;;;;;5.28;3.65;;;;;;;;;;5011934;28;20036;-67
2021/06/28 04:26:16;;;;;;;10.95;3.65;;;;;;;;;;5013420;28;20413;-67
2021/06/28 04:28:42;;;;;;;5.45;3.35;;;;;;;;;;5013247;28;20493;-67
2021/06/28 04:31:07;;;;;;;6.93;3.20;;;;;;;;;;5017017;28;20339;-67
2021/06/28 04:33:33;;;;;;;5.97;3.72;;;;;;;;;;5017869;28;20373;-68
2021/06/28 04:35:59;;;;;;;6.07;3.58;;;;;;;;;;5015984;28;20141;-68
2021/06/28 04:38:25;;;;;;;7.63;3.40;;;;;;;;;;5016000;28;20024;-68
2021/06/28 04:40:51;;;;;;;7.97;3.55;;;;;;;;;;5012932;28;20116;-67
2021/06/28 04:43:16;;;;;;;6.43;3.60;;;;;;;;;;5015109;28;20262;-68
2021/06/28 04:45:42;;;;;;;6.35;3.58;;;;;;;;;;5012316;28;20635;-67
2021/06/28 04:48:08;;;;;;;6.07;3.53;;;;;;;;;;5017212;28;20447;-67
2021/06/28 04:50:34;;;;;;;7.18;3.60;;;;;;;;;;5012793;28;20033;-68
2021/06/28 04:53:00;;;;;;;8.40;3.50;;;;;;;;;;5010750;28;20492;-68
2021/06/28 04:55:25;;;;;;;7.50;3.85;;;;;;;;;;5014254;28;20033;-68
2021/06/28 04:57:52;;;;;;;7.45;3.30;;;;;;;;;;5014630;28;20420;-68
2021/06/28 05:00:20;;;;;;;6.10;3.20;;;;;;;;;;5014457;28;20099;-68
2021/06/28 05:02:46;;;;;;;8.80;3.53;;;;;;;;;;5012743;28;20132;-69
2021/06/28 05:05:13;;;;;;;6.50;3.58;;;;;;;;;;5011808;28;20029;-69
2021/06/28 05:07:40;;;;;;;5.47;3.35;;;;;;;;;;5010756;28;20364;-69
2021/06/28 05:10:06;;;;;;;6.25;2.75;;;;;;;;;;5022656;28;20037;-69
2021/06/28 05:12:31;;;;;;;7.40;3.50;;;;;;;;;;5015763;28;20096;-69
2021/06/28 05:14:57;;;;;;;7.05;3.67;;;;;;;;;;5024388;28;20033;-68
2021/06/28 05:17:24;;;;;;;9.10;3.10;;;;;;;;;;5019179;28;20060;-69
2021/06/28 05:19:50;;;;;;;6.50;3.90;;;;;;;;;;5018862;28;20060;-69
2021/06/28 05:22:15;;;;;;;7.10;3.80;;;;;;;;;;5016760;28;20029;-68
2021/06/28 05:24:41;;;;;;;6.90;3.58;;;;;;;;;;5016625;28;20045;-67
2021/06/28 05:27:07;;;;;;;9.57;3.67;;;;;;;;;;5022509;28;20075;-68
2021/06/28 05:29:32;;;;;;;8.20;3.70;;;;;;;;;;5014079;28;20141;-68
2021/06/28 05:31:58;;;;;;;5.72;3.47;;;;;;;;;;5014963;28;20034;-68
2021/06/28 05:34:23;;;;;;;9.50;3.42;;;;;;;;;;5013339;28;20033;-67
2021/06/28 05:36:49;;;;;;;6.50;3.58;;;;;;;;;;5025913;28;20045;-67
2021/06/28 05:39:15;;;;;;;7.00;3.17;;;;;;;;;;5018905;28;20076;-68
2021/06/28 05:41:40;;;;;;;4.97;3.58;;;;;;;;;;5024816;28;20021;-68
2021/06/28 05:44:06;;;;;;;6.65;3.13;;;;;;;;;;5023081;28;20116;-68
2021/06/28 05:46:31;;;;;;;4.90;3.28;;;;;;;;;;5021538;28;20052;-67
2021/06/28 05:48:57;;;;;;;5.57;3.47;;;;;;;;;;5013036;28;20038;-67
2021/06/28 05:51:22;;;;;;;7.03;3.22;;;;;;;;;;5018774;28;20409;-67
2021/06/28 05:53:49;;;;;;;8.43;4.60;;;;;;;;;;5013131;28;20115;-68
2021/06/28 05:56:15;;;;;;;5.45;3.30;;;;;;;;;;5013818;28;20030;-68
2021/06/28 05:58:42;;;;;;;6.97;3.72;;;;;;;;;;5015255;28;20079;-68
2021/06/28 06:01:09;;;;;;;9.10;3.63;;;;;;;;;;5016310;28;20412;-68
2021/06/28 06:03:35;;;;;;;6.35;3.60;;;;;;;;;;5022833;28;20033;-67
2021/06/28 06:06:01;;;;;;;4.70;3.47;;;;;;;;;;5021022;28;20030;-67
2021/06/28 06:08:27;;;;;;;5.40;3.10;;;;;;;;;;5016698;28;20038;-67
2021/06/28 06:10:54;;;;;;;9.07;3.20;;;;;;;;;;5025031;28;20099;-67
2021/06/28 06:13:20;;;;;;;9.35;3.53;;;;;;;;;;5018135;28;20033;-67
2021/06/28 06:15:46;;;;;;;7.75;4.03;;;;;;;;;;5014198;28;20088;-67
2021/06/28 06:18:11;;;;;;;6.45;3.30;;;;;;;;;;5020271;28;20053;-68
2021/06/28 06:20:37;;;;;;;8.30;3.50;;;;;;;;;;5022250;28;20049;-68
2021/06/28 06:23:03;;;;;;;5.07;3.13;;;;;;;;;;5019241;28;20033;-68
2021/06/28 06:25:28;;;;;;;6.57;3.40;;;;;;;;;;5014197;28;20033;-68
2021/06/28 06:27:54;;;;;;;12.82;4.68;;;;;;;;;;5014016;28;20034;-68
2021/06/28 06:30:20;;;;;;;8.68;3.33;;;;;;;;;;5017036;28;20057;-68
2021/06/28 06:32:47;;;;;;;9.25;3.10;;;;;;;;;;5012566;28;20105;-69
2021/06/28 06:35:13;;;;;;;4.55;2.70;;;;;;;;;;5013612;28;20030;-69
2021/06/28 06:37:39;;;;;;;5.00;3.08;;;;;;;;;;5016680;28;20077;-68
2021/06/28 06:40:05;;;;;;;8.50;3.08;;;;;;;;;;5020462;28;20026;-68
2021/06/28 06:42:31;;;;;;;8.70;3.30;;;;;;;;;;5020592;28;20033;-68
2021/06/28 06:44:56;;;;;;;7.90;3.20;;;;;;;;;;5016445;28;20664;-66
2021/06/28 06:47:22;;;;;;;5.63;3.20;;;;;;;;;;5017361;28;20033;-67
2021/06/28 06:49:48;;;;;;;6.57;2.78;;;;;;;;;;5022314;28;20518;-67
2021/06/28 06:52:14;;;;;;;5.47;2.83;;;;;;;;;;5013353;28;20100;-67
2021/06/28 06:54:40;;;;;;;10.38;3.47;;;;;;;;;;5017057;28;20501;-67
2021/06/28 06:57:07;;;;;;;8.25;3.38;;;;;;;;;;5016791;28;20045;-69
2021/06/28 06:59:32;;;;;;;6.60;3.08;;;;;;;;;;5018956;28;20033;-67
2021/06/28 07:01:58;;;;;;;3.63;2.58;;;;;;;;;;5015668;28;20034;-67
2021/06/28 07:04:24;;;;;;;5.80;3.05;;;;;;;;;;5017387;28;20132;-66
2021/06/28 07:06:50;;;;;;;7.00;3.00;;;;;;;;;;5014502;28;20034;-65
2021/06/28 07:09:15;;;;;;;9.55;3.80;;;;;;;;;;5015401;28;20059;-65
2021/06/28 07:11:41;;;;;;;7.60;3.40;;;;;;;;;;5022891;28;20022;-66
2021/06/28 07:14:06;;;;;;;4.40;2.83;;;;;;;;;;5021092;28;20577;-68
2021/06/28 07:16:32;;;;;;;4.68;3.00;;;;;;;;;;5015408;28;20052;-67
2021/06/28 07:19:00;;;;;;;4.82;3.38;;;;;;;;;;5021196;28;20076;-67
2021/06/28 07:21:27;;;;;;;7.30;3.63;;;;;;;;;;5014361;28;20022;-67
2021/06/28 07:23:52;;;;;;;6.13;3.30;;;;;;;;;;5017365;28;20029;-67
2021/06/28 07:26:24;;;;;;;12.23;3.28;;;;;;;;;;5016941;28;20388;-67
2021/06/28 07:28:49;;;;;;;5.93;3.10;;;;;;;;;;5016075;28;20057;-67
2021/06/28 07:31:15;;;;;;;7.60;3.58;;;;;;;;;;5013951;28;20099;-66
2021/06/28 07:33:41;;;;;;;10.18;3.40;;;;;;;;;;5018932;28;20026;-66
2021/06/28 07:36:09;;;;;;;4.13;2.63;;;;;;;;;;5014749;28;20143;-66
2021/06/28 07:38:34;;;;;;;3.55;2.92;;;;;;;;;;5016141;28;20055;-66
2021/06/28 07:41:00;;;;;;;5.80;3.38;;;;;;;;;;5011819;28;21095;-66
2021/06/28 07:43:25;;;;;;;5.07;3.15;;;;;;;;;;5016115;28;20030;-67
2021/06/28 07:45:51;;;;;;;7.70;3.35;;;;;;;;;;5017387;28;20036;-66
2021/06/28 07:48:17;;;;;;;6.47;3.30;;;;;;;;;;5012525;28;20026;-67
2021/06/28 07:50:44;;;;;;;3.85;2.67;;;;;;;;;;5012756;28;20029;-67
2021/06/28 07:53:09;;;;;;;5.22;2.80;;;;;;;;;;5008932;28;20037;-67
2021/06/28 07:55:35;;;;;;;5.53;2.80;;;;;;;;;;5011838;28;20034;-68
2021/06/28 07:58:00;;;;;;;6.78;3.13;;;;;;;;;;5011123;28;20037;-68
2021/06/28 08:00:26;;;;;;;6.20;3.08;;;;;;;;;;5016714;28;20091;-67
2021/06/28 08:02:51;;;;;;;5.78;3.30;;;;;;;;;;5012733;28;20466;-66
2021/06/28 08:05:17;;;;;;;4.70;3.10;;;;;;;;;;5013170;28;20026;-65
2021/06/28 08:07:43;;;;;;;7.32;3.40;;;;;;;;;;5008253;28;20084;-65
2021/06/28 08:10:11;;;;;;;11.63;3.08;;;;;;;;;;5014694;28;20113;-66
2021/06/28 08:12:36;;;;;;;6.70;3.90;;;;;;;;;;5014309;28;20079;-66
2021/06/28 08:15:04;;;;;;;7.03;3.00;;;;;;;;;;5013412;28;20472;-66
2021/06/28 08:17:29;;;;;;;5.90;2.90;;;;;;;;;;5017717;28;20051;-65
2021/06/28 08:19:57;;;;;;;7.63;3.47;;;;;;;;;;5008192;28;20337;-66
2021/06/28 08:22:24;;;;;;;10.00;3.22;;;;;;;;;;5009272;28;20467;-67
2021/06/28 08:24:50;;;;;;;5.93;2.58;;;;;;;;;;5016404;28;20192;-66
2021/06/28 08:27:15;;;;;;;5.43;2.83;;;;;;;;;;5012315;28;20584;-65
2021/06/28 08:29:42;;;;;;;7.20;2.53;;;;;;;;;;5017043;28;20038;-65
2021/06/28 08:32:08;;;;;;;8.20;2.78;;;;;;;;;;5019591;28;20042;-65
2021/06/28 08:34:33;;;;;;;6.05;2.75;;;;;;;;;;5014083;28;20044;-65
2021/06/28 08:36:59;;;;;;;3.10;2.47;;;;;;;;;;5025667;28;20087;-67
2021/06/28 08:39:25;;;;;;;6.13;2.60;;;;;;;;;;5012380;28;20025;-66
2021/06/28 08:41:55;;;;;;;5.90;2.90;;;;;;;;;;5015140;28;20030;-66
2021/06/28 08:44:22;;;;;;;7.03;2.63;;;;;;;;;;5016840;28;20532;-66
2021/06/28 08:46:48;;;;;;;7.10;2.70;;;;;;;;;;5014304;28;20033;-66
2021/06/28 08:49:14;;;;;;;10.23;3.28;;;;;;;;;;5020269;28;20040;-66
2021/06/28 08:51:41;;;;;;;7.93;3.05;;;;;;;;;;5010669;28;20033;-66
2021/06/28 08:54:09;;;;;;;6.25;3.35;;;;;;;;;;5021189;28;20025;-66
2021/06/28 08:56:37;;;;;;;4.10;2.30;;;;;;;;;;5021191;28;20121;-66
2021/06/28 08:59:06;;;;;;;4.28;2.92;;;;;;;;;;5018062;28;20056;-66
2021/06/28 09:01:36;;;;;;;3.85;2.60;;;;;;;;;;5016394;28;20030;-66
2021/06/28 09:04:04;;;;;;;3.22;2.40;;;;;;;;;;5017939;28;20057;-66
2021/06/28 09:06:30;;;;;;;3.33;2.60;;;;;;;;;;5013915;28;20042;-66
2021/06/28 09:09:07;;;;;;;3.58;2.20;;;;;;;;;;5022782;28;20741;-67
2021/06/28 09:11:41;;;;;;;3.65;2.35;;;;;;;;;;5015008;28;20093;-66
2021/06/28 09:14:09;;;;;;;3.88;2.63;;;;;;;;;;5012225;28;20109;-66
2021/06/28 09:16:36;;;;;;;6.70;2.72;;;;;;;;;;5012623;28;20405;-66
2021/06/28 09:19:08;;;;;;;15.50;3.78;;;;;;;;;;5014890;28;20116;-66
2021/06/28 09:21:37;;;;;;;2.90;2.40;;;;;;;;;;5019207;28;20040;-66
2021/06/28 09:24:05;;;;;;;3.50;2.47;;;;;;;;;;5016965;28;20029;-66
2021/06/28 09:26:36;;;;;;;4.13;2.22;;;;;;;;;;5013856;28;20564;-66
2021/06/28 09:29:05;;;;;;;5.30;2.53;;;;;;;;;;5013045;28;20160;-66
2021/06/28 09:31:43;;;;;;;3.15;2.38;;;;;;;;;;5022037;28;20259;-67
2021/06/28 09:34:14;;;;;;;4.45;2.67;;;;;;;;;;5010590;28;20025;-67
2021/06/28 09:36:48;;;;;;;4.53;2.50;;;;;;;;;;5013277;28;20032;-68
2021/06/28 09:39:22;;;;;;;3.65;2.63;;;;;;;;;;5011708;28;20384;-68
2021/06/28 09:41:48;;;;;;;3.83;2.60;;;;;;;;;;5013074;28;20587;-68
2021/06/28 09:44:14;;;;;;;6.07;2.30;;;;;;;;;;5017432;28;20033;-68
2021/06/28 09:46:40;;;;;;;3.45;2.30;;;;;;;;;;5012797;28;20019;-68
2021/06/28 09:49:07;;;;;;;3.50;2.17;;;;;;;;;;5016822;28;20083;-68
2021/06/28 09:51:36;;;;;;;3.03;2.30;;;;;;;;;;5015645;28;20035;-68
2021/06/28 09:54:08;;;;;;;3.17;2.42;;;;;;;;;;5019381;28;20029;-68
2021/06/28 09:56:48;;;;;;;3.95;2.95;;;;;;;;;;5017149;28;20025;-68
2021/06/28 09:59:27;;;;;;;3.35;2.45;;;;;;;;;;5015674;28;20030;-69
2021/06/28 10:02:13;;;;;;;4.60;2.30;;;;;;;;;;5012535;28;20485;-67
2021/06/28 10:04:54;;;;;;;3.83;2.20;;;;;;;;;;5018477;28;20496;-68
2021/06/28 10:07:26;;;;;;;5.97;3.35;;;;;;;;;;5018847;28;20053;-68
2021/06/28 10:10:10;;;;;;;;;;;;;;;;;;5017210;28;20550;-67
2021/06/28 10:12:37;;;;;;;3.85;2.50;;;;;;;;;;5024363;28;20133;-67
2021/06/28 10:15:09;;;;;;;3.35;2.15;;;;;;;;;;5023383;28;20036;-67
2021/06/28 10:17:38;;;;;;;3.45;2.35;;;;;;;;;;5017994;28;20054;-68
2021/06/28 10:20:10;;;;;;;3.05;2.25;;;;;;;;;;5023059;28;20095;-67
2021/06/28 10:22:37;;;;;;;4.88;2.60;;;;;;;;;;5019878;28;20029;-68
2021/06/28 10:25:04;;;;;;;7.90;2.60;;;;;;;;;;5014905;28;20539;-67
2021/06/28 10:27:30;;;;;;;5.50;2.92;;;;;;;;;;5015014;28;20046;-67
2021/06/28 10:29:56;;;;;;;6.32;2.75;;;;;;;;;;5021253;28;20099;-67
2021/06/28 10:32:22;;;;;;;3.88;2.60;;;;;;;;;;5022555;28;20048;-67
2021/06/28 10:34:52;;;;;;;6.68;2.50;;;;;;;;;;5017361;28;20452;-67
2021/06/28 10:37:48;;;;;;;3.60;2.53;;;;;;;;;;5014859;28;20026;-67
2021/06/28 10:40:18;;;;;;;7.97;2.55;;;;;;;;;;5011150;28;20041;-67
2021/06/28 10:42:49;;;;;;;4.65;2.63;;;;;;;;;;5020485;28;20392;-67
2021/06/28 10:45:36;;;;;;;5.97;2.38;;;;;;;;;;5023248;28;20481;-67
2021/06/28 10:48:17;;;;;;;9.32;2.30;;;;;;;;;;5022882;28;20037;-67
2021/06/28 10:51:06;;;;;;;4.82;2.25;;;;;;;;;;5017504;28;20612;-68
2021/06/28 10:53:34;;;;;;;9.30;2.35;;;;;;;;;;5023531;28;20167;-67
2021/06/28 10:58:55;;;;;;;4.57;2.75;;;;;;;;;;5020912;28;20036;-67
2021/06/28 11:01:57;;;;;;;5.10;2.80;;;;;;;;;;5019786;28;20027;-67
2021/06/28 11:04:43;;;;;;;5.47;2.63;;;;;;;;;;5011678;28;20042;-68
2021/06/28 11:07:14;;;;;;;5.57;3.20;;;;;;;;;;5020276;28;20404;-68
2021/06/28 11:09:48;;;;;;;5.10;2.42;;;;;;;;;;5024340;28;20022;-68
2021/06/28 11:12:22;;;;;;;5.05;2.60;;;;;;;;;;5024108;28;20025;-68
2021/06/28 11:15:07;;;;;;;6.70;2.42;;;;;;;;;;5017601;28;20037;-68
2021/06/28 11:17:56;;;;;;;8.68;3.08;;;;;;;;;;5020836;28;20171;-67
2021/06/28 11:20:33;;;;;;;4.45;2.13;;;;;;;;;;5013298;28;20021;-68
2021/06/28 11:23:19;;;;;;;4.93;2.40;;;;;;;;;;5013476;28;20040;-68
2021/06/28 11:25:53;;;;;;;4.60;2.40;;;;;;;;;;5015162;28;20061;-68
2021/06/28 11:28:37;;;;;;;9.70;2.33;;;;;;;;;;5017247;28;20036;-69
2021/06/28 11:31:10;;;;;;;8.25;2.42;;;;;;;;;;5015105;28;20058;-65
2021/06/28 11:33:41;;;;;;;4.85;2.13;;;;;;;;;;5017726;28;20053;-66
2021/06/28 11:36:28;;;;;;;5.40;2.22;;;;;;;;;;5019324;28;20032;-67
2021/06/28 11:39:00;;;;;;;4.68;2.25;;;;;;;;;;5016057;28;20048;-67
2021/06/28 11:41:27;;;;;;;4.22;2.08;;;;;;;;;;5024633;28;20033;-66
2021/06/28 11:44:01;;;;;;;5.20;2.35;;;;;;;;;;5020953;28;20034;-67
2021/06/28 11:46:29;;;;;;;4.78;2.42;;;;;;;;;;5017668;28;20439;-67
2021/06/28 11:48:56;;;;;;;16.83;2.50;;;;;;;;;;5016023;28;20032;-67
2021/06/28 11:51:39;;;;;;;6.30;2.67;;;;;;;;;;5014830;28;20069;-67
2021/06/28 11:54:14;;;;;;;2.65;1.98;;;;;;;;;;5013634;28;20613;-68
2021/06/28 11:56:53;;;;;;;5.68;2.60;;;;;;;;;;5015227;28;20029;-68
2021/06/28 11:59:24;;;;;;;4.45;2.40;;;;;;;;;;5016392;28;20433;-68
2021/06/28 12:01:59;;;;;;;5.22;2.50;;;;;;;;;;5019485;28;20500;-68
2021/06/28 12:04:32;;;;;;;3.88;2.15;;;;;;;;;;5022332;28;20090;-68
2021/06/28 12:07:00;;;;;;;5.07;2.50;;;;;;;;;;5016107;28;20044;-68
2021/06/28 12:09:27;;;;;;;5.13;2.50;;;;;;;;;;5020000;28;20621;-68
2021/06/28 12:12:12;;;;;;;6.00;2.70;;;;;;;;;;5021526;28;20040;-68
2021/06/28 12:14:52;;;;;;;5.97;2.33;;;;;;;;;;5020614;28;20499;-68
2021/06/28 12:17:19;;;;;;;3.20;2.10;;;;;;;;;;5015849;28;20072;-68
2021/06/28 12:19:55;;;;;;;10.88;2.30;;;;;;;;;;5009534;28;20045;-67
2021/06/28 12:22:24;;;;;;;6.47;2.35;;;;;;;;;;5016995;28;20068;-67
2021/06/28 12:24:56;;;;;;;5.18;2.42;;;;;;;;;;5017735;28;20025;-68
2021/06/28 12:27:26;;;;;;;5.10;2.35;;;;;;;;;;5012588;28;20038;-68
2021/06/28 12:29:53;;;;;;;9.48;2.03;;;;;;;;;;5016552;28;20112;-68
2021/06/28 12:32:22;;;;;;;4.25;2.45;;;;;;;;;;5005915;28;20040;-68
2021/06/28 12:34:52;;;;;;;4.72;2.28;;;;;;;;;;5011207;28;20496;-68
2021/06/28 12:37:27;;;;;;;4.20;2.80;;;;;;;;;;5018676;28;20018;-68
2021/06/28 12:40:08;;;;;;;7.38;2.90;;;;;;;;;;5009930;28;20120;-69
2021/06/28 12:42:38;;;;;;;4.53;2.20;;;;;;;;;;5011564;28;20696;-69
2021/06/28 12:45:04;;;;;;;6.07;2.28;;;;;;;;;;5011995;28;20075;-70
2021/06/28 12:47:30;;;;;;;7.63;2.58;;;;;;;;;;5013116;28;20623;-69
2021/06/28 12:49:55;;;;;;;5.53;2.20;;;;;;;;;;5013803;28;20117;-70
2021/06/28 12:52:37;;;;;;;12.35;2.50;;;;;;;;;;5008658;28;20026;-66
2021/06/28 12:55:27;;;;;;;5.25;2.10;;;;;;;;;;5017756;28;20062;-66
2021/06/28 12:58:07;;;;;;;4.82;2.60;;;;;;;;;;5018435;28;20026;-66
2021/06/28 13:00:35;;;;;;;5.10;2.30;;;;;;;;;;5016630;28;20029;-66
2021/06/28 13:03:08;;;;;;;5.60;2.35;;;;;;;;;;5015860;28;20038;-64
2021/06/28 13:05:42;;;;;;;4.70;2.88;;;;;;;;;;5016863;28;20033;-65
2021/06/28 13:08:24;;;;;;;10.70;2.90;;;;;;;;;;5013979;28;20041;-65
2021/06/28 13:11:12;;;;;;;16.75;2.28;;;;;;;;;;5013363;28;20491;-65
2021/06/28 13:13:41;;;;;;;6.55;2.53;;;;;;;;;;5011525;28;20112;-66
2021/06/28 13:16:19;;;;;;;6.15;2.60;;;;;;;;;;5013506;28;20084;-66
2021/06/28 13:19:14;;;;;;;8.77;3.13;;;;;;;;;;5018131;28;20033;-66
2021/06/28 13:21:49;;;;;;;6.35;2.53;;;;;;;;;;5019960;28;20045;-66
2021/06/28 13:24:17;;;;;;;3.80;2.13;;;;;;;;;;5016805;28;20029;-65
2021/06/28 13:26:44;;;;;;;6.10;2.22;;;;;;;;;;5014781;28;20428;-65
2021/06/28 13:29:12;;;;;;;6.75;2.60;;;;;;;;;;5017891;28;20488;-65
2021/06/28 13:31:58;;;;;;;9.38;2.45;;;;;;;;;;5021770;28;20392;-65
2021/06/28 13:34:29;;;;;;;5.53;2.50;;;;;;;;;;5028278;28;20116;-65
2021/06/28 13:37:16;;;;;;;4.30;2.17;;;;;;;;;;5020728;28;20537;-65
2021/06/28 13:39:54;;;;;;;3.42;2.60;;;;;;;;;;5017840;28;20353;-65
2021/06/28 13:42:27;;;;;;;3.45;2.70;;;;;;;;;;5022370;28;20079;-65
2021/06/28 13:45:18;;;;;;;6.40;3.00;;;;;;;;;;5024083;28;20080;-65
2021/06/28 13:48:06;;;;;;;4.13;2.22;;;;;;;;;;5015759;28;20618;-65
2021/06/28 13:50:31;;;;;;;4.70;2.00;;;;;;;;;;5019408;28;20052;-66
2021/06/28 13:52:57;;;;;;;4.28;2.58;;;;;;;;;;5022732;28;20426;-65
2021/06/28 13:55:24;;;;;;;6.15;2.00;;;;;;;;;;5021063;28;20388;-66
2021/06/28 13:57:58;;;;;;;4.15;1.92;;;;;;;;;;5019683;28;20022;-65
2021/06/28 14:00:27;;;;;;;6.20;2.00;;;;;;;;;;5015879;28;20464;-66
2021/06/28 14:02:54;;;;;;;4.85;2.00;;;;;;;;;;5020888;28;20319;-65
2021/06/28 14:05:19;;;;;;;9.68;1.65;;;;;;;;;;5019890;28;20029;-66
2021/06/28 14:07:45;;;;;;;3.97;1.73;;;;;;;;;;5026070;28;20502;-65
2021/06/28 14:10:11;;;;;;;7.93;2.10;;;;;;;;;;5021959;28;20033;-65
2021/06/28 14:12:41;;;;;;;5.20;2.00;;;;;;;;;;5021730;28;20037;-65
2021/06/28 14:15:09;;;;;;;3.92;1.92;;;;;;;;;;5018033;28;20032;-65
2021/06/28 14:17:35;;;;;;;3.95;1.90;;;;;;;;;;5022283;28;20699;-65
2021/06/28 14:20:02;;;;;;;5.63;1.75;;;;;;;;;;5019956;28;20208;-65
2021/06/28 14:22:31;;;;;;;6.75;1.70;;;;;;;;;;5022054;28;20053;-65
2021/06/28 14:24:57;;;;;;;3.92;1.95;;;;;;;;;;5019079;28;20030;-65
2021/06/28 14:27:22;;;;;;;4.13;2.10;;;;;;;;;;5020786;28;20092;-65
2021/06/28 14:29:48;;;;;;;4.97;2.13;;;;;;;;;;5014344;28;20132;-64
2021/06/28 14:32:13;;;;;;;6.38;2.45;;;;;;;;;;5015935;28;20635;-65
2021/06/28 14:34:39;;;;;;;3.22;2.13;;;;;;;;;;5021014;28;20057;-63
2021/06/28 14:37:04;;;;;;;6.18;2.30;;;;;;;;;;5021173;28;20045;-65
2021/06/28 14:39:30;;;;;;;5.05;2.03;;;;;;;;;;5023394;28;20026;-63
2021/06/28 14:41:55;;;;;;;8.07;2.08;;;;;;;;;;5019935;28;20893;-64
2021/06/28 14:44:21;;;;;;;4.72;1.48;;;;;;;;;;5023228;28;20042;-63
2021/06/28 14:46:46;;;;;;;4.38;2.47;;;;;;;;;;5024403;28;20547;-64
2021/06/28 14:49:13;;;;;;;4.40;2.05;;;;;;;;;;5013463;28;20084;-65
2021/06/28 14:51:39;;;;;;;8.65;2.10;;;;;;;;;;5021496;28;20033;-65
2021/06/28 14:54:04;;;;;;;3.10;2.25;;;;;;;;;;5017022;28;20123;-65